sensor_id;sensor_type;location;lat;lon;timestamp;P1;durP1;ratioP1;P2;durP2;ratioP2
79052;SDS011;68451;49.510;6.026;2024-01-07T00:00:49;12.17;;;6.63;;
79052;SDS011;68451;49.510;6.026;2024-01-07T00:03:16;10.97;;;7.90;;
79052;SDS011;68451;49.510;6.026;2024-01-07T00:05:43;11.87;;;7.30;;
79052;SDS011;68451;49.510;6.026;2024-01-07T00:08:10;14.80;;;8.40;;
79052;SDS011;68451;49.510;6.026;2024-01-07T00:10:37;14.17;;;7.90;;
79052;SDS011;68451;49.510;6.026;2024-01-07T00:13:03;13.17;;;7.23;;
79052;SDS011;68451;49.510;6.026;2024-01-07T00:15:30;11.13;;;8.00;;
79052;SDS011;68451;49.510;6.026;2024-01-07T00:17:58;11.17;;;6.87;;
79052;SDS011;68451;49.510;6.026;2024-01-07T00:20:25;14.73;;;8.80;;
79052;SDS011;68451;49.510;6.026;2024-01-07T00:22:51;19.00;;;7.97;;
79052;SDS011;68451;49.510;6.026;2024-01-07T00:25:18;13.10;;;7.27;;
79052;SDS011;68451;49.510;6.026;2024-01-07T00:27:45;14.20;;;9.40;;
79052;SDS011;68451;49.510;6.026;2024-01-07T00:30:12;12.97;;;8.37;;
79052;SDS011;68451;49.510;6.026;2024-01-07T00:32:39;15.80;;;8.87;;
79052;SDS011;68451;49.510;6.026;2024-01-07T00:35:06;14.70;;;7.53;;
79052;SDS011;68451;49.510;6.026;2024-01-07T00:37:33;19.03;;;10.80;;
79052;SDS011;68451;49.510;6.026;2024-01-07T00:40:01;18.30;;;9.73;;
79052;SDS011;68451;49.510;6.026;2024-01-07T00:42:28;13.73;;;8.70;;
79052;SDS011;68451;49.510;6.026;2024-01-07T00:44:55;16.27;;;7.60;;
79052;SDS011;68451;49.510;6.026;2024-01-07T00:47:22;16.57;;;7.87;;
79052;SDS011;68451;49.510;6.026;2024-01-07T00:49:49;16.87;;;8.73;;
79052;SDS011;68451;49.510;6.026;2024-01-07T00:52:16;15.50;;;9.13;;
79052;SDS011;68451;49.510;6.026;2024-01-07T00:54:42;20.73;;;9.67;;
79052;SDS011;68451;49.510;6.026;2024-01-07T00:57:12;10.47;;;7.13;;
79052;SDS011;68451;49.510;6.026;2024-01-07T00:59:39;16.37;;;8.87;;
79052;SDS011;68451;49.510;6.026;2024-01-07T01:02:06;14.43;;;8.07;;
79052;SDS011;68451;49.510;6.026;2024-01-07T01:04:33;13.43;;;8.40;;
79052;SDS011;68451;49.510;6.026;2024-01-07T01:07:00;15.00;;;8.87;;
79052;SDS011;68451;49.510;6.026;2024-01-07T01:09:27;17.77;;;8.87;;
79052;SDS011;68451;49.510;6.026;2024-01-07T01:11:55;12.83;;;8.73;;
79052;SDS011;68451;49.510;6.026;2024-01-07T01:14:22;11.80;;;7.87;;
79052;SDS011;68451;49.510;6.026;2024-01-07T01:16:49;16.70;;;8.63;;
79052;SDS011;68451;49.510;6.026;2024-01-07T01:19:16;16.00;;;8.93;;
79052;SDS011;68451;49.510;6.026;2024-01-07T01:21:44;15.50;;;7.97;;
79052;SDS011;68451;49.510;6.026;2024-01-07T01:24:11;18.67;;;9.30;;
79052;SDS011;68451;49.510;6.026;2024-01-07T01:26:39;14.33;;;8.33;;
79052;SDS011;68451;49.510;6.026;2024-01-07T01:29:05;16.17;;;8.97;;
79052;SDS011;68451;49.510;6.026;2024-01-07T01:31:32;16.17;;;9.00;;
79052;SDS011;68451;49.510;6.026;2024-01-07T01:33:59;18.47;;;8.20;;
79052;SDS011;68451;49.510;6.026;2024-01-07T01:36:27;12.83;;;7.83;;
79052;SDS011;68451;49.510;6.026;2024-01-07T01:38:53;14.87;;;8.00;;
79052;SDS011;68451;49.510;6.026;2024-01-07T01:41:20;13.63;;;7.67;;
79052;SDS011;68451;49.510;6.026;2024-01-07T01:43:47;14.57;;;9.20;;
79052;SDS011;68451;49.510;6.026;2024-01-07T01:46:14;16.17;;;8.67;;
79052;SDS011;68451;49.510;6.026;2024-01-07T01:48:41;15.87;;;7.67;;
79052;SDS011;68451;49.510;6.026;2024-01-07T01:51:09;12.13;;;8.57;;
79052;SDS011;68451;49.510;6.026;2024-01-07T01:53:36;11.00;;;7.07;;
79052;SDS011;68451;49.510;6.026;2024-01-07T01:56:04;13.60;;;8.13;;
79052;SDS011;68451;49.510;6.026;2024-01-07T01:58:31;12.80;;;7.70;;
79052;SDS011;68451;49.510;6.026;2024-01-07T02:00:59;14.73;;;8.40;;
79052;SDS011;68451;49.510;6.026;2024-01-07T02:03:26;12.83;;;8.03;;
79052;SDS011;68451;49.510;6.026;2024-01-07T02:05:53;12.97;;;8.47;;
79052;SDS011;68451;49.510;6.026;2024-01-07T02:08:20;12.40;;;8.27;;
79052;SDS011;68451;49.510;6.026;2024-01-07T02:10:47;14.03;;;7.47;;
79052;SDS011;68451;49.510;6.026;2024-01-07T02:13:14;13.17;;;7.70;;
79052;SDS011;68451;49.510;6.026;2024-01-07T02:15:42;13.83;;;8.90;;
79052;SDS011;68451;49.510;6.026;2024-01-07T02:18:10;15.23;;;8.80;;
79052;SDS011;68451;49.510;6.026;2024-01-07T02:20:37;13.97;;;8.53;;
79052;SDS011;68451;49.510;6.026;2024-01-07T02:23:04;14.70;;;7.43;;
79052;SDS011;68451;49.510;6.026;2024-01-07T02:25:36;12.03;;;7.87;;
79052;SDS011;68451;49.510;6.026;2024-01-07T02:28:04;12.20;;;8.43;;
79052;SDS011;68451;49.510;6.026;2024-01-07T02:30:31;14.20;;;7.40;;
79052;SDS011;68451;49.510;6.026;2024-01-07T02:33:02;11.97;;;8.23;;
79052;SDS011;68451;49.510;6.026;2024-01-07T02:35:30;11.45;;;6.50;;
79052;SDS011;68451;49.510;6.026;2024-01-07T02:37:57;12.87;;;7.30;;
79052;SDS011;68451;49.510;6.026;2024-01-07T02:40:24;11.77;;;7.47;;
79052;SDS011;68451;49.510;6.026;2024-01-07T02:42:51;12.60;;;7.67;;
79052;SDS011;68451;49.510;6.026;2024-01-07T02:45:18;13.20;;;7.70;;
79052;SDS011;68451;49.510;6.026;2024-01-07T02:47:46;11.77;;;7.50;;
79052;SDS011;68451;49.510;6.026;2024-01-07T02:50:13;12.57;;;6.70;;
79052;SDS011;68451;49.510;6.026;2024-01-07T02:52:39;13.17;;;8.30;;
79052;SDS011;68451;49.510;6.026;2024-01-07T02:55:07;12.50;;;6.93;;
79052;SDS011;68451;49.510;6.026;2024-01-07T02:57:34;9.77;;;7.00;;
79052;SDS011;68451;49.510;6.026;2024-01-07T03:00:01;10.77;;;6.73;;
79052;SDS011;68451;49.510;6.026;2024-01-07T03:02:28;13.17;;;7.77;;
79052;SDS011;68451;49.510;6.026;2024-01-07T03:04:55;11.30;;;6.77;;
79052;SDS011;68451;49.510;6.026;2024-01-07T03:07:22;10.33;;;7.20;;
79052;SDS011;68451;49.510;6.026;2024-01-07T03:09:49;11.60;;;6.90;;
79052;SDS011;68451;49.510;6.026;2024-01-07T03:12:16;10.60;;;6.33;;
79052;SDS011;68451;49.510;6.026;2024-01-07T03:14:43;12.67;;;6.63;;
79052;SDS011;68451;49.510;6.026;2024-01-07T03:17:10;12.13;;;6.60;;
79052;SDS011;68451;49.510;6.026;2024-01-07T03:19:37;13.23;;;7.67;;
79052;SDS011;68451;49.510;6.026;2024-01-07T03:22:05;8.43;;;6.10;;
79052;SDS011;68451;49.510;6.026;2024-01-07T03:24:33;9.30;;;6.33;;
79052;SDS011;68451;49.510;6.026;2024-01-07T03:27:00;11.50;;;6.63;;
79052;SDS011;68451;49.510;6.026;2024-01-07T03:29:27;11.57;;;7.13;;
79052;SDS011;68451;49.510;6.026;2024-01-07T03:31:54;13.03;;;7.00;;
79052;SDS011;68451;49.510;6.026;2024-01-07T03:34:21;14.03;;;7.57;;
79052;SDS011;68451;49.510;6.026;2024-01-07T03:36:47;13.87;;;6.47;;
79052;SDS011;68451;49.510;6.026;2024-01-07T03:39:14;13.53;;;6.90;;
79052;SDS011;68451;49.510;6.026;2024-01-07T03:41:41;12.93;;;7.63;;
79052;SDS011;68451;49.510;6.026;2024-01-07T03:44:08;11.33;;;7.43;;
79052;SDS011;68451;49.510;6.026;2024-01-07T03:46:35;15.17;;;7.30;;
79052;SDS011;68451;49.510;6.026;2024-01-07T03:49:02;13.03;;;6.90;;
79052;SDS011;68451;49.510;6.026;2024-01-07T03:51:29;12.20;;;7.80;;
79052;SDS011;68451;49.510;6.026;2024-01-07T03:53:56;10.37;;;7.10;;
79052;SDS011;68451;49.510;6.026;2024-01-07T03:56:22;10.93;;;6.30;;
79052;SDS011;68451;49.510;6.026;2024-01-07T03:58:49;12.90;;;6.67;;
79052;SDS011;68451;49.510;6.026;2024-01-07T04:01:16;9.70;;;6.37;;
79052;SDS011;68451;49.510;6.026;2024-01-07T04:03:44;12.37;;;7.50;;
79052;SDS011;68451;49.510;6.026;2024-01-07T04:06:11;12.80;;;7.23;;
79052;SDS011;68451;49.510;6.026;2024-01-07T04:08:38;10.97;;;7.20;;
79052;SDS011;68451;49.510;6.026;2024-01-07T04:11:05;13.13;;;8.47;;
79052;SDS011;68451;49.510;6.026;2024-01-07T04:13:32;12.57;;;7.37;;
79052;SDS011;68451;49.510;6.026;2024-01-07T04:15:59;11.50;;;6.57;;
79052;SDS011;68451;49.510;6.026;2024-01-07T04:18:25;12.83;;;7.53;;
79052;SDS011;68451;49.510;6.026;2024-01-07T04:20:52;14.00;;;8.00;;
79052;SDS011;68451;49.510;6.026;2024-01-07T04:23:19;15.00;;;7.60;;
79052;SDS011;68451;49.510;6.026;2024-01-07T04:25:46;11.37;;;7.07;;
79052;SDS011;68451;49.510;6.026;2024-01-07T04:28:13;11.90;;;6.63;;
79052;SDS011;68451;49.510;6.026;2024-01-07T04:30:40;11.63;;;6.73;;
79052;SDS011;68451;49.510;6.026;2024-01-07T04:33:07;11.67;;;7.70;;
79052;SDS011;68451;49.510;6.026;2024-01-07T04:35:34;12.97;;;6.27;;
79052;SDS011;68451;49.510;6.026;2024-01-07T04:38:02;9.43;;;5.90;;
79052;SDS011;68451;49.510;6.026;2024-01-07T04:40:28;13.73;;;8.17;;
79052;SDS011;68451;49.510;6.026;2024-01-07T04:42:55;12.70;;;7.43;;
79052;SDS011;68451;49.510;6.026;2024-01-07T04:45:22;9.43;;;6.80;;
79052;SDS011;68451;49.510;6.026;2024-01-07T04:47:49;12.47;;;6.97;;
79052;SDS011;68451;49.510;6.026;2024-01-07T04:50:16;13.00;;;6.77;;
79052;SDS011;68451;49.510;6.026;2024-01-07T04:52:46;11.60;;;6.93;;
79052;SDS011;68451;49.510;6.026;2024-01-07T04:55:13;13.33;;;7.00;;
79052;SDS011;68451;49.510;6.026;2024-01-07T04:57:40;9.53;;;6.57;;
79052;SDS011;68451;49.510;6.026;2024-01-07T05:00:07;10.23;;;6.33;;
79052;SDS011;68451;49.510;6.026;2024-01-07T05:02:34;10.57;;;7.00;;
79052;SDS011;68451;49.510;6.026;2024-01-07T05:05:02;14.40;;;8.57;;
79052;SDS011;68451;49.510;6.026;2024-01-07T05:07:29;15.40;;;7.80;;
79052;SDS011;68451;49.510;6.026;2024-01-07T05:09:56;11.47;;;6.90;;
79052;SDS011;68451;49.510;6.026;2024-01-07T05:12:23;12.53;;;7.37;;
79052;SDS011;68451;49.510;6.026;2024-01-07T05:14:52;10.50;;;6.33;;
79052;SDS011;68451;49.510;6.026;2024-01-07T05:17:19;11.83;;;6.53;;
79052;SDS011;68451;49.510;6.026;2024-01-07T05:19:46;11.73;;;6.50;;
79052;SDS011;68451;49.510;6.026;2024-01-07T05:22:13;10.87;;;6.70;;
79052;SDS011;68451;49.510;6.026;2024-01-07T05:24:40;11.57;;;6.77;;
79052;SDS011;68451;49.510;6.026;2024-01-07T05:27:07;10.60;;;6.50;;
79052;SDS011;68451;49.510;6.026;2024-01-07T05:29:33;10.70;;;7.10;;
79052;SDS011;68451;49.510;6.026;2024-01-07T05:32:00;11.30;;;8.00;;
79052;SDS011;68451;49.510;6.026;2024-01-07T05:34:29;10.60;;;6.60;;
79052;SDS011;68451;49.510;6.026;2024-01-07T05:36:56;15.10;;;7.97;;
79052;SDS011;68451;49.510;6.026;2024-01-07T05:39:23;8.77;;;6.13;;
79052;SDS011;68451;49.510;6.026;2024-01-07T05:41:50;13.23;;;7.90;;
79052;SDS011;68451;49.510;6.026;2024-01-07T05:44:17;13.57;;;6.87;;
79052;SDS011;68451;49.510;6.026;2024-01-07T05:46:44;10.50;;;6.77;;
79052;SDS011;68451;49.510;6.026;2024-01-07T05:49:11;11.17;;;6.90;;
79052;SDS011;68451;49.510;6.026;2024-01-07T05:51:41;10.23;;;6.63;;
79052;SDS011;68451;49.510;6.026;2024-01-07T05:54:08;10.60;;;5.60;;
79052;SDS011;68451;49.510;6.026;2024-01-07T05:56:38;10.90;;;6.10;;
79052;SDS011;68451;49.510;6.026;2024-01-07T05:59:07;15.23;;;7.32;;
79052;SDS011;68451;49.510;6.026;2024-01-07T06:01:34;9.60;;;5.97;;
79052;SDS011;68451;49.510;6.026;2024-01-07T06:04:01;11.87;;;6.77;;
79052;SDS011;68451;49.510;6.026;2024-01-07T06:06:29;12.33;;;6.33;;
79052;SDS011;68451;49.510;6.026;2024-01-07T06:08:56;10.40;;;6.90;;
79052;SDS011;68451;49.510;6.026;2024-01-07T06:11:23;10.87;;;5.50;;
79052;SDS011;68451;49.510;6.026;2024-01-07T06:13:50;10.53;;;6.33;;
79052;SDS011;68451;49.510;6.026;2024-01-07T06:16:16;10.90;;;6.67;;
79052;SDS011;68451;49.510;6.026;2024-01-07T06:18:43;8.60;;;4.93;;
79052;SDS011;68451;49.510;6.026;2024-01-07T06:21:11;10.87;;;5.97;;
79052;SDS011;68451;49.510;6.026;2024-01-07T06:23:37;13.10;;;6.47;;
79052;SDS011;68451;49.510;6.026;2024-01-07T06:26:04;10.73;;;6.03;;
79052;SDS011;68451;49.510;6.026;2024-01-07T06:28:32;10.47;;;5.37;;
79052;SDS011;68451;49.510;6.026;2024-01-07T06:31:02;8.93;;;5.07;;
79052;SDS011;68451;49.510;6.026;2024-01-07T06:33:30;10.13;;;5.93;;
79052;SDS011;68451;49.510;6.026;2024-01-07T06:35:57;8.90;;;5.20;;
79052;SDS011;68451;49.510;6.026;2024-01-07T06:38:23;9.47;;;6.10;;
79052;SDS011;68451;49.510;6.026;2024-01-07T06:40:50;9.67;;;5.20;;
79052;SDS011;68451;49.510;6.026;2024-01-07T06:43:17;9.20;;;5.37;;
79052;SDS011;68451;49.510;6.026;2024-01-07T06:45:45;12.93;;;7.63;;
79052;SDS011;68451;49.510;6.026;2024-01-07T06:48:12;7.77;;;4.60;;
79052;SDS011;68451;49.510;6.026;2024-01-07T06:50:39;10.00;;;6.13;;
79052;SDS011;68451;49.510;6.026;2024-01-07T06:53:05;13.10;;;5.87;;
79052;SDS011;68451;49.510;6.026;2024-01-07T06:55:32;10.60;;;5.90;;
79052;SDS011;68451;49.510;6.026;2024-01-07T06:57:59;10.37;;;6.13;;
79052;SDS011;68451;49.510;6.026;2024-01-07T07:00:26;9.13;;;5.73;;
79052;SDS011;68451;49.510;6.026;2024-01-07T07:02:53;11.00;;;5.63;;
79052;SDS011;68451;49.510;6.026;2024-01-07T07:05:20;9.37;;;5.27;;
79052;SDS011;68451;49.510;6.026;2024-01-07T07:07:47;8.73;;;5.47;;
79052;SDS011;68451;49.510;6.026;2024-01-07T07:10:17;9.80;;;5.13;;
79052;SDS011;68451;49.510;6.026;2024-01-07T07:12:44;9.13;;;5.13;;
79052;SDS011;68451;49.510;6.026;2024-01-07T07:15:11;9.73;;;5.30;;
79052;SDS011;68451;49.510;6.026;2024-01-07T07:17:38;10.23;;;5.43;;
79052;SDS011;68451;49.510;6.026;2024-01-07T07:20:05;10.60;;;6.40;;
79052;SDS011;68451;49.510;6.026;2024-01-07T07:22:33;10.70;;;6.80;;
79052;SDS011;68451;49.510;6.026;2024-01-07T07:25:00;9.83;;;5.87;;
79052;SDS011;68451;49.510;6.026;2024-01-07T07:27:28;9.47;;;5.20;;
79052;SDS011;68451;49.510;6.026;2024-01-07T07:29:55;9.17;;;5.63;;
79052;SDS011;68451;49.510;6.026;2024-01-07T07:32:23;10.40;;;5.87;;
79052;SDS011;68451;49.510;6.026;2024-01-07T07:34:50;11.13;;;5.97;;
79052;SDS011;68451;49.510;6.026;2024-01-07T07:37:17;8.50;;;5.27;;
79052;SDS011;68451;49.510;6.026;2024-01-07T07:39:46;9.87;;;5.87;;
79052;SDS011;68451;49.510;6.026;2024-01-07T07:42:13;11.17;;;5.77;;
79052;SDS011;68451;49.510;6.026;2024-01-07T07:44:40;10.03;;;5.83;;
79052;SDS011;68451;49.510;6.026;2024-01-07T07:47:07;14.13;;;7.33;;
79052;SDS011;68451;49.510;6.026;2024-01-07T07:49:38;10.37;;;5.83;;
79052;SDS011;68451;49.510;6.026;2024-01-07T07:52:07;10.80;;;6.30;;
79052;SDS011;68451;49.510;6.026;2024-01-07T07:54:38;11.40;;;6.37;;
79052;SDS011;68451;49.510;6.026;2024-01-07T07:57:05;9.53;;;6.50;;
79052;SDS011;68451;49.510;6.026;2024-01-07T07:59:32;13.73;;;6.87;;
79052;SDS011;68451;49.510;6.026;2024-01-07T08:01:59;11.93;;;5.73;;
79052;SDS011;68451;49.510;6.026;2024-01-07T08:04:26;9.23;;;5.70;;
79052;SDS011;68451;49.510;6.026;2024-01-07T08:06:53;11.33;;;5.97;;
79052;SDS011;68451;49.510;6.026;2024-01-07T08:09:22;12.27;;;6.73;;
79052;SDS011;68451;49.510;6.026;2024-01-07T08:11:51;9.60;;;6.57;;
79052;SDS011;68451;49.510;6.026;2024-01-07T08:14:18;8.07;;;5.53;;
79052;SDS011;68451;49.510;6.026;2024-01-07T08:16:45;12.03;;;7.13;;
79052;SDS011;68451;49.510;6.026;2024-01-07T08:19:12;11.60;;;5.83;;
79052;SDS011;68451;49.510;6.026;2024-01-07T08:21:40;10.93;;;7.40;;
79052;SDS011;68451;49.510;6.026;2024-01-07T08:24:07;10.80;;;5.70;;
79052;SDS011;68451;49.510;6.026;2024-01-07T08:26:34;10.97;;;6.50;;
79052;SDS011;68451;49.510;6.026;2024-01-07T08:29:01;9.47;;;6.70;;
79052;SDS011;68451;49.510;6.026;2024-01-07T08:31:27;10.33;;;6.13;;
79052;SDS011;68451;49.510;6.026;2024-01-07T08:33:54;11.33;;;6.60;;
79052;SDS011;68451;49.510;6.026;2024-01-07T08:36:22;12.20;;;6.73;;
79052;SDS011;68451;49.510;6.026;2024-01-07T08:38:49;11.00;;;6.53;;
79052;SDS011;68451;49.510;6.026;2024-01-07T08:41:16;11.77;;;7.00;;
79052;SDS011;68451;49.510;6.026;2024-01-07T08:43:43;10.60;;;6.60;;
79052;SDS011;68451;49.510;6.026;2024-01-07T08:46:11;10.07;;;5.57;;
79052;SDS011;68451;49.510;6.026;2024-01-07T08:48:40;13.23;;;7.13;;
79052;SDS011;68451;49.510;6.026;2024-01-07T08:51:07;13.53;;;7.40;;
79052;SDS011;68451;49.510;6.026;2024-01-07T08:53:34;12.00;;;7.23;;
79052;SDS011;68451;49.510;6.026;2024-01-07T08:56:01;10.13;;;6.07;;
79052;SDS011;68451;49.510;6.026;2024-01-07T08:58:28;13.50;;;7.40;;
79052;SDS011;68451;49.510;6.026;2024-01-07T09:00:55;13.07;;;7.27;;
79052;SDS011;68451;49.510;6.026;2024-01-07T09:03:22;10.13;;;6.23;;
79052;SDS011;68451;49.510;6.026;2024-01-07T09:05:49;12.23;;;6.83;;
79052;SDS011;68451;49.510;6.026;2024-01-07T09:08:16;12.23;;;7.20;;
79052;SDS011;68451;49.510;6.026;2024-01-07T09:10:43;12.47;;;6.97;;
79052;SDS011;68451;49.510;6.026;2024-01-07T09:13:10;11.87;;;6.33;;
79052;SDS011;68451;49.510;6.026;2024-01-07T09:15:37;11.33;;;6.37;;
79052;SDS011;68451;49.510;6.026;2024-01-07T09:18:05;10.83;;;5.90;;
79052;SDS011;68451;49.510;6.026;2024-01-07T09:20:32;10.07;;;6.30;;
79052;SDS011;68451;49.510;6.026;2024-01-07T09:23:00;12.43;;;7.13;;
79052;SDS011;68451;49.510;6.026;2024-01-07T09:25:27;12.57;;;6.63;;
79052;SDS011;68451;49.510;6.026;2024-01-07T09:27:54;14.67;;;7.33;;
79052;SDS011;68451;49.510;6.026;2024-01-07T09:30:23;12.87;;;6.13;;
79052;SDS011;68451;49.510;6.026;2024-01-07T09:32:50;9.27;;;5.73;;
79052;SDS011;68451;49.510;6.026;2024-01-07T09:35:17;12.40;;;7.07;;
79052;SDS011;68451;49.510;6.026;2024-01-07T09:37:44;11.77;;;5.70;;
79052;SDS011;68451;49.510;6.026;2024-01-07T09:40:11;12.87;;;6.80;;
79052;SDS011;68451;49.510;6.026;2024-01-07T09:42:38;13.27;;;7.10;;
79052;SDS011;68451;49.510;6.026;2024-01-07T09:45:06;12.47;;;6.93;;
79052;SDS011;68451;49.510;6.026;2024-01-07T09:47:33;11.00;;;6.77;;
79052;SDS011;68451;49.510;6.026;2024-01-07T09:50:01;10.53;;;6.60;;
79052;SDS011;68451;49.510;6.026;2024-01-07T09:52:29;11.13;;;6.23;;
79052;SDS011;68451;49.510;6.026;2024-01-07T09:55:01;7.87;;;6.10;;
79052;SDS011;68451;49.510;6.026;2024-01-07T09:57:33;11.33;;;5.63;;
79052;SDS011;68451;49.510;6.026;2024-01-07T10:00:00;12.17;;;6.10;;
79052;SDS011;68451;49.510;6.026;2024-01-07T10:02:28;10.90;;;6.00;;
79052;SDS011;68451;49.510;6.026;2024-01-07T10:04:55;10.70;;;6.60;;
79052;SDS011;68451;49.510;6.026;2024-01-07T10:07:22;10.87;;;6.50;;
79052;SDS011;68451;49.510;6.026;2024-01-07T10:09:49;13.30;;;6.60;;
79052;SDS011;68451;49.510;6.026;2024-01-07T10:12:15;11.53;;;6.70;;
79052;SDS011;68451;49.510;6.026;2024-01-07T10:14:42;10.30;;;5.40;;
79052;SDS011;68451;49.510;6.026;2024-01-07T10:17:16;11.97;;;6.47;;
79052;SDS011;68451;49.510;6.026;2024-01-07T10:19:44;10.03;;;5.20;;
79052;SDS011;68451;49.510;6.026;2024-01-07T10:22:12;9.13;;;5.27;;
79052;SDS011;68451;49.510;6.026;2024-01-07T10:24:41;9.03;;;5.47;;
79052;SDS011;68451;49.510;6.026;2024-01-07T10:27:09;14.33;;;7.17;;
79052;SDS011;68451;49.510;6.026;2024-01-07T10:29:37;9.63;;;6.07;;
79052;SDS011;68451;49.510;6.026;2024-01-07T10:32:04;10.63;;;5.73;;
79052;SDS011;68451;49.510;6.026;2024-01-07T10:34:33;9.43;;;6.07;;
79052;SDS011;68451;49.510;6.026;2024-01-07T10:37:02;9.73;;;6.67;;
79052;SDS011;68451;49.510;6.026;2024-01-07T10:39:32;9.07;;;5.60;;
79052;SDS011;68451;49.510;6.026;2024-01-07T10:41:59;9.17;;;6.30;;
79052;SDS011;68451;49.510;6.026;2024-01-07T10:44:26;10.00;;;6.40;;
79052;SDS011;68451;49.510;6.026;2024-01-07T10:46:56;11.43;;;6.03;;
79052;SDS011;68451;49.510;6.026;2024-01-07T10:49:24;8.77;;;5.80;;
79052;SDS011;68451;49.510;6.026;2024-01-07T10:52:05;8.17;;;6.10;;
79052;SDS011;68451;49.510;6.026;2024-01-07T10:54:34;8.23;;;4.90;;
79052;SDS011;68451;49.510;6.026;2024-01-07T10:57:48;6.97;;;5.40;;
79052;SDS011;68451;49.510;6.026;2024-01-07T11:00:09;8.87;;;5.87;;
79052;SDS011;68451;49.510;6.026;2024-01-07T11:02:52;7.30;;;4.57;;
79052;SDS011;68451;49.510;6.026;2024-01-07T11:05:43;7.13;;;4.57;;
79052;SDS011;68451;49.510;6.026;2024-01-07T11:08:18;6.90;;;4.87;;
79052;SDS011;68451;49.510;6.026;2024-01-07T11:10:50;9.03;;;5.87;;
79052;SDS011;68451;49.510;6.026;2024-01-07T11:13:31;6.90;;;5.17;;
79052;SDS011;68451;49.510;6.026;2024-01-07T11:16:02;8.63;;;5.10;;
79052;SDS011;68451;49.510;6.026;2024-01-07T11:18:30;8.53;;;5.43;;
79052;SDS011;68451;49.510;6.026;2024-01-07T11:21:00;8.17;;;4.30;;
79052;SDS011;68451;49.510;6.026;2024-01-07T11:23:34;7.57;;;5.07;;
79052;SDS011;68451;49.510;6.026;2024-01-07T11:26:06;8.47;;;5.00;;
79052;SDS011;68451;49.510;6.026;2024-01-07T11:28:42;6.57;;;4.43;;
79052;SDS011;68451;49.510;6.026;2024-01-07T11:31:16;6.03;;;4.23;;
79052;SDS011;68451;49.510;6.026;2024-01-07T11:33:53;8.87;;;4.07;;
79052;SDS011;68451;49.510;6.026;2024-01-07T11:36:21;6.40;;;4.27;;
79052;SDS011;68451;49.510;6.026;2024-01-07T11:38:49;6.17;;;4.80;;
79052;SDS011;68451;49.510;6.026;2024-01-07T11:41:20;5.97;;;4.50;;
79052;SDS011;68451;49.510;6.026;2024-01-07T11:43:54;6.30;;;3.87;;
79052;SDS011;68451;49.510;6.026;2024-01-07T11:46:22;5.43;;;3.80;;
79052;SDS011;68451;49.510;6.026;2024-01-07T11:48:50;7.13;;;5.40;;
79052;SDS011;68451;49.510;6.026;2024-01-07T11:51:19;5.43;;;3.93;;
79052;SDS011;68451;49.510;6.026;2024-01-07T11:53:46;6.70;;;4.00;;
79052;SDS011;68451;49.510;6.026;2024-01-07T11:56:14;5.67;;;3.97;;
79052;SDS011;68451;49.510;6.026;2024-01-07T11:58:41;5.60;;;4.43;;
79052;SDS011;68451;49.510;6.026;2024-01-07T12:01:08;4.77;;;3.73;;
79052;SDS011;68451;49.510;6.026;2024-01-07T12:03:35;6.97;;;3.80;;
79052;SDS011;68451;49.510;6.026;2024-01-07T12:06:03;7.27;;;4.17;;
79052;SDS011;68451;49.510;6.026;2024-01-07T12:08:31;5.20;;;4.20;;
79052;SDS011;68451;49.510;6.026;2024-01-07T12:10:59;6.07;;;4.40;;
79052;SDS011;68451;49.510;6.026;2024-01-07T12:13:27;5.80;;;4.17;;
79052;SDS011;68451;49.510;6.026;2024-01-07T12:15:54;5.40;;;4.40;;
79052;SDS011;68451;49.510;6.026;2024-01-07T12:18:21;4.07;;;3.13;;
79052;SDS011;68451;49.510;6.026;2024-01-07T12:20:55;5.80;;;3.63;;
79052;SDS011;68451;49.510;6.026;2024-01-07T12:23:25;6.73;;;4.43;;
79052;SDS011;68451;49.510;6.026;2024-01-07T12:25:53;5.10;;;3.80;;
79052;SDS011;68451;49.510;6.026;2024-01-07T12:28:20;4.77;;;3.60;;
79052;SDS011;68451;49.510;6.026;2024-01-07T12:30:47;6.47;;;3.83;;
79052;SDS011;68451;49.510;6.026;2024-01-07T12:33:16;6.50;;;3.50;;
79052;SDS011;68451;49.510;6.026;2024-01-07T12:35:46;6.47;;;4.30;;
79052;SDS011;68451;49.510;6.026;2024-01-07T12:38:13;5.00;;;3.57;;
79052;SDS011;68451;49.510;6.026;2024-01-07T12:40:41;7.23;;;4.70;;
79052;SDS011;68451;49.510;6.026;2024-01-07T12:43:08;6.70;;;4.03;;
79052;SDS011;68451;49.510;6.026;2024-01-07T12:45:35;6.50;;;3.63;;
79052;SDS011;68451;49.510;6.026;2024-01-07T12:48:02;6.07;;;4.50;;
79052;SDS011;68451;49.510;6.026;2024-01-07T12:50:29;5.27;;;4.40;;
79052;SDS011;68451;49.510;6.026;2024-01-07T12:52:58;7.77;;;4.60;;
79052;SDS011;68451;49.510;6.026;2024-01-07T12:55:26;5.63;;;3.63;;
79052;SDS011;68451;49.510;6.026;2024-01-07T12:57:53;7.97;;;4.87;;
79052;SDS011;68451;49.510;6.026;2024-01-07T13:00:21;7.93;;;4.53;;
79052;SDS011;68451;49.510;6.026;2024-01-07T13:02:48;6.10;;;4.13;;
79052;SDS011;68451;49.510;6.026;2024-01-07T13:05:15;6.73;;;4.80;;
79052;SDS011;68451;49.510;6.026;2024-01-07T13:07:43;9.40;;;5.90;;
79052;SDS011;68451;49.510;6.026;2024-01-07T13:10:09;10.43;;;5.63;;
79052;SDS011;68451;49.510;6.026;2024-01-07T13:12:36;9.27;;;6.07;;
79052;SDS011;68451;49.510;6.026;2024-01-07T13:15:13;9.13;;;5.77;;
79052;SDS011;68451;49.510;6.026;2024-01-07T13:17:43;8.80;;;6.17;;
79052;SDS011;68451;49.510;6.026;2024-01-07T13:20:10;10.23;;;6.50;;
79052;SDS011;68451;49.510;6.026;2024-01-07T13:22:38;8.83;;;6.80;;
79052;SDS011;68451;49.510;6.026;2024-01-07T13:25:05;8.20;;;5.97;;
79052;SDS011;68451;49.510;6.026;2024-01-07T13:27:33;9.57;;;5.80;;
79052;SDS011;68451;49.510;6.026;2024-01-07T13:30:03;10.23;;;6.10;;
79052;SDS011;68451;49.510;6.026;2024-01-07T13:32:31;10.83;;;6.17;;
79052;SDS011;68451;49.510;6.026;2024-01-07T13:37:31;8.60;;;5.50;;
79052;SDS011;68451;49.510;6.026;2024-01-07T13:39:57;8.37;;;6.13;;
79052;SDS011;68451;49.510;6.026;2024-01-07T13:42:24;9.10;;;6.40;;
79052;SDS011;68451;49.510;6.026;2024-01-07T13:44:52;8.30;;;5.80;;
79052;SDS011;68451;49.510;6.026;2024-01-07T13:47:19;9.40;;;6.10;;
79052;SDS011;68451;49.510;6.026;2024-01-07T13:49:46;12.10;;;7.30;;
79052;SDS011;68451;49.510;6.026;2024-01-07T13:52:13;10.73;;;7.47;;
79052;SDS011;68451;49.510;6.026;2024-01-07T13:54:41;8.47;;;5.97;;
79052;SDS011;68451;49.510;6.026;2024-01-07T13:57:08;12.23;;;6.53;;
79052;SDS011;68451;49.510;6.026;2024-01-07T13:59:35;9.33;;;5.90;;
79052;SDS011;68451;49.510;6.026;2024-01-07T14:02:02;9.70;;;7.33;;
79052;SDS011;68451;49.510;6.026;2024-01-07T14:04:31;7.63;;;6.80;;
79052;SDS011;68451;49.510;6.026;2024-01-07T14:06:58;8.13;;;5.50;;
79052;SDS011;68451;49.510;6.026;2024-01-07T14:09:25;7.47;;;5.70;;
79052;SDS011;68451;49.510;6.026;2024-01-07T14:11:52;11.03;;;5.60;;
79052;SDS011;68451;49.510;6.026;2024-01-07T14:14:19;6.87;;;5.40;;
79052;SDS011;68451;49.510;6.026;2024-01-07T14:16:46;8.60;;;5.30;;
79052;SDS011;68451;49.510;6.026;2024-01-07T14:19:13;7.10;;;5.27;;
79052;SDS011;68451;49.510;6.026;2024-01-07T14:21:42;7.47;;;4.73;;
79052;SDS011;68451;49.510;6.026;2024-01-07T14:24:09;7.13;;;5.33;;
79052;SDS011;68451;49.510;6.026;2024-01-07T14:26:37;9.27;;;5.67;;
79052;SDS011;68451;49.510;6.026;2024-01-07T14:29:04;7.07;;;4.60;;
79052;SDS011;68451;49.510;6.026;2024-01-07T14:31:43;10.97;;;5.73;;
79052;SDS011;68451;49.510;6.026;2024-01-07T14:34:11;6.20;;;4.97;;
79052;SDS011;68451;49.510;6.026;2024-01-07T14:36:41;6.30;;;4.77;;
79052;SDS011;68451;49.510;6.026;2024-01-07T14:39:11;6.30;;;4.97;;
79052;SDS011;68451;49.510;6.026;2024-01-07T14:41:40;8.13;;;5.60;;
79052;SDS011;68451;49.510;6.026;2024-01-07T14:44:07;8.47;;;5.97;;